Terminal Aerodrome Forecast
Issued by NWS Green Bay, WI

Home | Current Version | Previous Version | Graphics & Text | Print | Product List | Glossary On
Versions: 1 2 3 4 5 6 7 8 9 10 11 12 13 14 15 16 17 18 19 20 21 22 23 24 25 26 27 28 29 30 31 32 33 34 35 36 37 38 39
000
FTUS43 KGRB 281100
TAFGRB
TAF
KGRB 281130Z 2812/2912 00000KT P6SM SCT025 BKN120
      TEMPO 2812/2816 5SM BR BKN025
     FM281600 17005KT 6SM BR SCT015 BKN025
     FM282100 15010KT P6SM SCT025 BKN060 WS018/19035KT
     FM290400 16011KT 6SM BR BKN020 OVC050 WS018/19030KT PROB30
      2904/2910 2SM -FZRASNPL BR BKN012
     FM291000 30008KT 5SM -SN BR BKN012=

USA.gov is the U.S. government's official web portal to all federal, state and local government web resources and services.